PWSweather.com
Personal Weather Stations
Station Observations
METEOC500
Santo Antonio, FunchalPT 2020

Santo AntonioFunchalPT 2020

Lat: 32.678227, Lon: -16.945054

Elevation: 1669.94751

Station Type: WH Series

High Low Average
Temperature 69.6°F20.9°C 59.5°F15.3°C 64.4°F18.0°C
Dew Point 63.5°F17.5°C 53.6°F12.0°C 58.4°F14.7°C
Winds 8.1 mph 13.0 kmh Calm Calm 4.0 mph WSW6.4 kmh WSW
Wind Gusts 17.4 mph28.0 kmh 2.5 mph4.0 kmh 9.0 mph14.5 kmh
Humidity 87% 73% 81%
Pressure 30.29 in1025.7 mb 30.21 in1023.0 mb -
Precipitation 0.00 in0.0 mm - -
Hour Temp Dew Point Humidity Winds Wind Gusts Pressure Precip Precip Rate Daily Precip Total
12:04 AM 62.1°F16.7°C 56.8°F13.8°C 83% 6.5 mph NNW10.5 kmh NNW 12.5 mph20.1 kmh 30.29 in1025.7 mb 0.00 in0.0 mm 0.00 in0.0 mm 0.00 in0.0 mm
12:19 AM 61.7°F16.5°C 56.8°F13.8°C 84% 6.9 mph NW11.1 kmh NW 10.1 mph16.3 kmh 30.29 in1025.7 mb 0.00 in0.0 mm 0.00 in0.0 mm 0.00 in0.0 mm
12:34 AM 61.7°F16.5°C 56.1°F13.4°C 82% 7.8 mph N12.6 kmh N 10.1 mph16.3 kmh 30.29 in1025.7 mb 0.00 in0.0 mm 0.00 in0.0 mm 0.00 in0.0 mm
12:49 AM 61.7°F16.5°C 56.1°F13.4°C 82% 1.8 mph NW2.9 kmh NW 10.1 mph16.3 kmh 30.29 in1025.7 mb 0.00 in0.0 mm 0.00 in0.0 mm 0.00 in0.0 mm
01:04 AM 61.5°F16.4°C 56.7°F13.7°C 84% 6.9 mph NW11.1 kmh NW 10.1 mph16.3 kmh 30.29 in1025.7 mb 0.00 in0.0 mm 0.00 in0.0 mm 0.00 in0.0 mm
01:19 AM 61.5°F16.4°C 55.6°F13.1°C 81% 4.5 mph NNW7.2 kmh NNW 12.5 mph20.1 kmh 30.29 in1025.7 mb 0.00 in0.0 mm 0.00 in0.0 mm 0.00 in0.0 mm
01:35 AM 61.5°F16.4°C 56.7°F13.7°C 84% 5.6 mph NNW9.0 kmh NNW 10.1 mph16.3 kmh 30.28 in1025.4 mb 0.00 in0.0 mm 0.00 in0.0 mm 0.00 in0.0 mm
01:50 AM 61.0°F16.1°C 56.5°F13.6°C 85% 6.0 mph N9.7 kmh N 7.6 mph12.2 kmh 30.27 in1025.1 mb 0.00 in0.0 mm 0.00 in0.0 mm 0.00 in0.0 mm
02:06 AM 60.6°F15.9°C 55.0°F12.8°C 82% 6.5 mph NNW10.5 kmh NNW 12.5 mph20.1 kmh 30.27 in1025.1 mb 0.00 in0.0 mm 0.00 in0.0 mm 0.00 in0.0 mm
02:21 AM 60.6°F15.9°C 54.5°F12.5°C 80% 5.4 mph N8.7 kmh N 10.1 mph16.3 kmh 30.27 in1025.1 mb 0.00 in0.0 mm 0.00 in0.0 mm 0.00 in0.0 mm
02:36 AM 60.6°F15.9°C 54.5°F12.5°C 80% 8.1 mph N13.0 kmh N 12.5 mph20.1 kmh 30.27 in1025.1 mb 0.00 in0.0 mm 0.00 in0.0 mm 0.00 in0.0 mm
02:51 AM 60.6°F15.9°C 54.5°F12.5°C 80% 6.0 mph N9.7 kmh N 10.1 mph16.3 kmh 30.26 in1024.7 mb 0.00 in0.0 mm 0.00 in0.0 mm 0.00 in0.0 mm
03:06 AM 60.4°F15.8°C 54.3°F12.4°C 80% 6.5 mph N10.5 kmh N 10.1 mph16.3 kmh 30.25 in1024.4 mb 0.00 in0.0 mm 0.00 in0.0 mm 0.00 in0.0 mm
03:22 AM 60.4°F15.8°C 54.5°F12.5°C 81% 6.0 mph NNW9.7 kmh NNW 10.1 mph16.3 kmh 30.24 in1024.0 mb 0.00 in0.0 mm 0.00 in0.0 mm 0.00 in0.0 mm
03:37 AM 60.4°F15.8°C 54.3°F12.4°C 80% 4.7 mph NNW7.6 kmh NNW 10.1 mph16.3 kmh 30.24 in1024.0 mb 0.00 in0.0 mm 0.00 in0.0 mm 0.00 in0.0 mm
03:52 AM 60.4°F15.8°C 54.3°F12.4°C 80% 6.5 mph NNW10.5 kmh NNW 10.1 mph16.3 kmh 30.23 in1023.7 mb 0.00 in0.0 mm 0.00 in0.0 mm 0.00 in0.0 mm
04:07 AM 60.4°F15.8°C 53.6°F12.0°C 78% 4.7 mph NNW7.6 kmh NNW 10.1 mph16.3 kmh 30.23 in1023.7 mb 0.00 in0.0 mm 0.00 in0.0 mm 0.00 in0.0 mm
04:22 AM 60.4°F15.8°C 54.0°F12.2°C 79% 4.9 mph N7.9 kmh N 7.6 mph12.2 kmh 30.23 in1023.7 mb 0.00 in0.0 mm 0.00 in0.0 mm 0.00 in0.0 mm
04:38 AM 60.3°F15.7°C 53.8°F12.1°C 79% 5.4 mph NNW8.7 kmh NNW 7.6 mph12.2 kmh 30.23 in1023.7 mb 0.00 in0.0 mm 0.00 in0.0 mm 0.00 in0.0 mm
04:53 AM 59.9°F15.5°C 54.1°F12.3°C 81% 5.4 mph NNW8.7 kmh NNW 7.6 mph12.2 kmh 30.23 in1023.7 mb 0.00 in0.0 mm 0.00 in0.0 mm 0.00 in0.0 mm
05:08 AM 59.5°F15.3°C 54.3°F12.4°C 83% 5.6 mph NNW9.0 kmh NNW 7.6 mph12.2 kmh 30.23 in1023.7 mb 0.00 in0.0 mm 0.00 in0.0 mm 0.00 in0.0 mm
05:23 AM 59.5°F15.3°C 53.8°F12.1°C 81% 4.7 mph NNW7.6 kmh NNW 7.6 mph12.2 kmh 30.23 in1023.7 mb 0.00 in0.0 mm 0.00 in0.0 mm 0.00 in0.0 mm
05:38 AM 59.7°F15.4°C 54.0°F12.2°C 81% 4.0 mph NNW6.4 kmh NNW 7.6 mph12.2 kmh 30.24 in1024.0 mb 0.00 in0.0 mm 0.00 in0.0 mm 0.00 in0.0 mm
05:54 AM 59.9°F15.5°C 53.8°F12.1°C 80% 6.0 mph N9.7 kmh N 7.6 mph12.2 kmh 30.24 in1024.0 mb 0.00 in0.0 mm 0.00 in0.0 mm 0.00 in0.0 mm
06:09 AM 60.1°F15.6°C 54.3°F12.4°C 81% 5.6 mph N9.0 kmh N 7.6 mph12.2 kmh 30.24 in1024.0 mb 0.00 in0.0 mm 0.00 in0.0 mm 0.00 in0.0 mm
06:24 AM 59.9°F15.5°C 54.3°F12.4°C 82% 5.4 mph NNW8.7 kmh NNW 7.6 mph12.2 kmh 30.24 in1024.0 mb 0.00 in0.0 mm 0.00 in0.0 mm 0.00 in0.0 mm
06:39 AM 59.9°F15.5°C 54.1°F12.3°C 81% 6.0 mph NNW9.7 kmh NNW 7.6 mph12.2 kmh 30.24 in1024.0 mb 0.00 in0.0 mm 0.00 in0.0 mm 0.00 in0.0 mm
06:54 AM 60.3°F15.7°C 54.3°F12.4°C 81% 4.9 mph NNW7.9 kmh NNW 7.6 mph12.2 kmh 30.24 in1024.0 mb 0.00 in0.0 mm 0.00 in0.0 mm 0.00 in0.0 mm
07:10 AM 60.4°F15.8°C 54.3°F12.4°C 80% 4.5 mph N7.2 kmh N 10.1 mph16.3 kmh 30.25 in1024.4 mb 0.00 in0.0 mm 0.00 in0.0 mm 0.00 in0.0 mm
07:25 AM 60.4°F15.8°C 54.9°F12.7°C 82% 4.9 mph NNW7.9 kmh NNW 7.6 mph12.2 kmh 30.25 in1024.4 mb 0.00 in0.0 mm 0.00 in0.0 mm 0.00 in0.0 mm
07:40 AM 60.4°F15.8°C 54.5°F12.5°C 81% 5.4 mph N8.7 kmh N 7.6 mph12.2 kmh 30.26 in1024.7 mb 0.00 in0.0 mm 0.00 in0.0 mm 0.00 in0.0 mm
07:55 AM 61.2°F16.2°C 54.7°F12.6°C 79% 6.3 mph N10.1 kmh N 7.6 mph12.2 kmh 30.25 in1024.4 mb 0.00 in0.0 mm 0.00 in0.0 mm 0.00 in0.0 mm
08:10 AM 62.1°F16.7°C 55.8°F13.2°C 80% 3.8 mph N6.1 kmh N 7.6 mph12.2 kmh 30.27 in1025.1 mb 0.00 in0.0 mm 0.00 in0.0 mm 0.00 in0.0 mm
08:26 AM 62.8°F17.1°C 56.5°F13.6°C 80% 2.2 mph N3.5 kmh N 7.6 mph12.2 kmh 30.26 in1024.7 mb 0.00 in0.0 mm 0.00 in0.0 mm 0.00 in0.0 mm
08:41 AM 63.9°F17.7°C 57.2°F14.0°C 79% 0.2 mph S0.3 kmh S 4.9 mph7.9 kmh 30.26 in1024.7 mb 0.00 in0.0 mm 0.00 in0.0 mm 0.00 in0.0 mm
08:56 AM 66.6°F19.2°C 59.2°F15.1°C 77% 3.4 mph SE5.5 kmh SE 4.9 mph7.9 kmh 30.27 in1025.1 mb 0.00 in0.0 mm 0.00 in0.0 mm 0.00 in0.0 mm
09:11 AM 68.0°F20.0°C 59.0°F15.0°C 73% 2.5 mph E4.0 kmh E 7.6 mph12.2 kmh 30.27 in1025.1 mb 0.00 in0.0 mm 0.00 in0.0 mm 0.00 in0.0 mm
09:26 AM 67.8°F19.9°C 59.5°F15.3°C 75% 3.8 mph SE6.1 kmh SE 7.6 mph12.2 kmh 30.28 in1025.4 mb 0.00 in0.0 mm 0.00 in0.0 mm 0.00 in0.0 mm
09:42 AM 68.7°F20.4°C 60.1°F15.6°C 74% 3.1 mph E5.0 kmh E 10.1 mph16.3 kmh 30.28 in1025.4 mb 0.00 in0.0 mm 0.00 in0.0 mm 0.00 in0.0 mm
09:57 AM 69.6°F20.9°C 62.1°F16.7°C 77% 2.2 mph NE3.5 kmh NE 10.1 mph16.3 kmh 30.28 in1025.4 mb 0.00 in0.0 mm 0.00 in0.0 mm 0.00 in0.0 mm
10:12 AM 68.7°F20.4°C 62.6°F17.0°C 81% 5.6 mph S9.0 kmh S 12.5 mph20.1 kmh 30.29 in1025.7 mb 0.00 in0.0 mm 0.00 in0.0 mm 0.00 in0.0 mm
10:27 AM 67.5°F19.7°C 61.7°F16.5°C 82% 2.2 mph SSW3.5 kmh SSW 10.1 mph16.3 kmh 30.28 in1025.4 mb 0.00 in0.0 mm 0.00 in0.0 mm 0.00 in0.0 mm
10:42 AM 67.3°F19.6°C 61.2°F16.2°C 81% 3.1 mph S5.0 kmh S 7.6 mph12.2 kmh 30.29 in1025.7 mb 0.00 in0.0 mm 0.00 in0.0 mm 0.00 in0.0 mm
10:58 AM 67.8°F19.9°C 61.0°F16.1°C 79% 3.8 mph E6.1 kmh E 12.5 mph20.1 kmh 30.29 in1025.7 mb 0.00 in0.0 mm 0.00 in0.0 mm 0.00 in0.0 mm
11:13 AM 68.9°F20.5°C 61.7°F16.5°C 78% 4.0 mph ESE6.4 kmh ESE 12.5 mph20.1 kmh 30.28 in1025.4 mb 0.00 in0.0 mm 0.00 in0.0 mm 0.00 in0.0 mm
11:28 AM 68.9°F20.5°C 61.7°F16.5°C 78% 6.5 mph SE10.5 kmh SE 12.5 mph20.1 kmh 30.29 in1025.7 mb 0.00 in0.0 mm 0.00 in0.0 mm 0.00 in0.0 mm
11:43 AM 68.7°F20.4°C 60.8°F16.0°C 76% 3.1 mph S5.0 kmh S 15.0 mph24.1 kmh 30.28 in1025.4 mb 0.00 in0.0 mm 0.00 in0.0 mm 0.00 in0.0 mm
11:58 AM 69.6°F20.9°C 61.3°F16.3°C 75% 2.9 mph SW4.7 kmh SW 10.1 mph16.3 kmh 30.27 in1025.1 mb 0.00 in0.0 mm 0.00 in0.0 mm 0.00 in0.0 mm
12:14 PM 69.6°F20.9°C 63.5°F17.5°C 81% 3.1 mph SW5.0 kmh SW 12.5 mph20.1 kmh 30.27 in1025.1 mb 0.00 in0.0 mm 0.00 in0.0 mm 0.00 in0.0 mm
12:29 PM 68.2°F20.1°C 62.8°F17.1°C 83% Calm Calm 12.5 mph20.1 kmh 30.27 in1025.1 mb 0.00 in0.0 mm 0.00 in0.0 mm 0.00 in0.0 mm
12:44 PM 67.1°F19.5°C 62.1°F16.7°C 84% 3.8 mph S6.1 kmh S 7.6 mph12.2 kmh 30.27 in1025.1 mb 0.00 in0.0 mm 0.00 in0.0 mm 0.00 in0.0 mm
12:59 PM 66.9°F19.4°C 61.9°F16.6°C 84% 3.8 mph SE6.1 kmh SE 7.6 mph12.2 kmh 30.27 in1025.1 mb 0.00 in0.0 mm 0.00 in0.0 mm 0.00 in0.0 mm
01:15 PM 67.1°F19.5°C 61.7°F16.5°C 83% 1.8 mph S2.9 kmh S 10.1 mph16.3 kmh 30.26 in1024.7 mb 0.00 in0.0 mm 0.00 in0.0 mm 0.00 in0.0 mm
01:30 PM 68.2°F20.1°C 60.6°F15.9°C 77% 3.4 mph NE5.5 kmh NE 12.5 mph20.1 kmh 30.26 in1024.7 mb 0.00 in0.0 mm 0.00 in0.0 mm 0.00 in0.0 mm
01:46 PM 69.1°F20.6°C 63.3°F17.4°C 82% 8.1 mph SSW13.0 kmh SSW 17.4 mph28.0 kmh 30.25 in1024.4 mb 0.00 in0.0 mm 0.00 in0.0 mm 0.00 in0.0 mm
02:01 PM 68.7°F20.4°C 62.6°F17.0°C 81% 4.9 mph S7.9 kmh S 10.1 mph16.3 kmh 30.25 in1024.4 mb 0.00 in0.0 mm 0.00 in0.0 mm 0.00 in0.0 mm
02:16 PM 68.5°F20.3°C 62.1°F16.7°C 80% 2.9 mph E4.7 kmh E 10.1 mph16.3 kmh 30.25 in1024.4 mb 0.00 in0.0 mm 0.00 in0.0 mm 0.00 in0.0 mm
02:31 PM 68.4°F20.2°C 62.6°F17.0°C 82% 6.5 mph S10.5 kmh S 12.5 mph20.1 kmh 30.24 in1024.0 mb 0.00 in0.0 mm 0.00 in0.0 mm 0.00 in0.0 mm
02:46 PM 68.2°F20.1°C 62.1°F16.7°C 81% 8.1 mph SSE13.0 kmh SSE 10.1 mph16.3 kmh 30.24 in1024.0 mb 0.00 in0.0 mm 0.00 in0.0 mm 0.00 in0.0 mm
03:02 PM 68.5°F20.3°C 62.1°F16.7°C 80% 4.0 mph SSW6.4 kmh SSW 10.1 mph16.3 kmh 30.24 in1024.0 mb 0.00 in0.0 mm 0.00 in0.0 mm 0.00 in0.0 mm
03:17 PM 68.9°F20.5°C 62.4°F16.9°C 80% 1.6 mph SSE2.6 kmh SSE 10.1 mph16.3 kmh 30.24 in1024.0 mb 0.00 in0.0 mm 0.00 in0.0 mm 0.00 in0.0 mm
03:32 PM 68.7°F20.4°C 62.2°F16.8°C 80% 6.0 mph SSW9.7 kmh SSW 10.1 mph16.3 kmh 30.23 in1023.7 mb 0.00 in0.0 mm 0.00 in0.0 mm 0.00 in0.0 mm
03:47 PM 68.4°F20.2°C 61.5°F16.4°C 79% 4.0 mph SE6.4 kmh SE 7.6 mph12.2 kmh 30.22 in1023.4 mb 0.00 in0.0 mm 0.00 in0.0 mm 0.00 in0.0 mm
04:02 PM 68.9°F20.5°C 61.3°F16.3°C 77% 1.8 mph SSE2.9 kmh SSE 10.1 mph16.3 kmh 30.22 in1023.4 mb 0.00 in0.0 mm 0.00 in0.0 mm 0.00 in0.0 mm
04:18 PM 69.4°F20.8°C 62.2°F16.8°C 78% 2.9 mph S4.7 kmh S 10.1 mph16.3 kmh 30.22 in1023.4 mb 0.00 in0.0 mm 0.00 in0.0 mm 0.00 in0.0 mm
04:33 PM 68.9°F20.5°C 61.7°F16.5°C 78% 0.2 mph S0.3 kmh S 7.6 mph12.2 kmh 30.22 in1023.4 mb 0.00 in0.0 mm 0.00 in0.0 mm 0.00 in0.0 mm
04:48 PM 68.5°F20.3°C 61.3°F16.3°C 78% 1.3 mph SSE2.1 kmh SSE 7.6 mph12.2 kmh 30.22 in1023.4 mb 0.00 in0.0 mm 0.00 in0.0 mm 0.00 in0.0 mm
05:03 PM 68.5°F20.3°C 61.3°F16.3°C 78% 5.6 mph SE9.0 kmh SE 10.1 mph16.3 kmh 30.22 in1023.4 mb 0.00 in0.0 mm 0.00 in0.0 mm 0.00 in0.0 mm
05:18 PM 68.2°F20.1°C 61.7°F16.5°C 80% 7.6 mph SE12.2 kmh SE 10.1 mph16.3 kmh 30.22 in1023.4 mb 0.00 in0.0 mm 0.00 in0.0 mm 0.00 in0.0 mm
05:34 PM 67.6°F19.8°C 61.2°F16.2°C 80% 2.5 mph SE4.0 kmh SE 12.5 mph20.1 kmh 30.22 in1023.4 mb 0.00 in0.0 mm 0.00 in0.0 mm 0.00 in0.0 mm
05:49 PM 67.5°F19.7°C 61.2°F16.2°C 80% 0.2 mph SSW0.3 kmh SSW 7.6 mph12.2 kmh 30.21 in1023.0 mb 0.00 in0.0 mm 0.00 in0.0 mm 0.00 in0.0 mm
06:04 PM 67.3°F19.6°C 61.0°F16.1°C 80% 5.6 mph S9.0 kmh S 7.6 mph12.2 kmh 30.21 in1023.0 mb 0.00 in0.0 mm 0.00 in0.0 mm 0.00 in0.0 mm
06:19 PM 66.7°F19.3°C 60.4°F15.8°C 80% 5.6 mph SE9.0 kmh SE 7.6 mph12.2 kmh 30.21 in1023.0 mb 0.00 in0.0 mm 0.00 in0.0 mm 0.00 in0.0 mm
06:34 PM 66.2°F19.0°C 60.3°F15.7°C 81% 2.5 mph S4.0 kmh S 4.9 mph7.9 kmh 30.21 in1023.0 mb 0.00 in0.0 mm 0.00 in0.0 mm 0.00 in0.0 mm
06:49 PM 65.7°F18.7°C 60.6°F15.9°C 84% 2.5 mph S4.0 kmh S 7.6 mph12.2 kmh 30.21 in1023.0 mb 0.00 in0.0 mm 0.00 in0.0 mm 0.00 in0.0 mm
07:05 PM 65.1°F18.4°C 60.1°F15.6°C 84% Calm Calm 4.9 mph7.9 kmh 30.21 in1023.0 mb 0.00 in0.0 mm 0.00 in0.0 mm 0.00 in0.0 mm
07:20 PM 64.9°F18.3°C 59.9°F15.5°C 84% 1.6 mph SSE2.6 kmh SSE 4.9 mph7.9 kmh 30.21 in1023.0 mb 0.00 in0.0 mm 0.00 in0.0 mm 0.00 in0.0 mm
07:35 PM 64.8°F18.2°C 60.1°F15.6°C 85% Calm Calm 4.9 mph7.9 kmh 30.21 in1023.0 mb 0.00 in0.0 mm 0.00 in0.0 mm 0.00 in0.0 mm
07:50 PM 64.6°F18.1°C 59.9°F15.5°C 85% Calm Calm 2.5 mph4.0 kmh 30.22 in1023.4 mb 0.00 in0.0 mm 0.00 in0.0 mm 0.00 in0.0 mm
08:06 PM 64.4°F18.0°C 60.1°F15.6°C 86% 0.2 mph S0.3 kmh S 2.5 mph4.0 kmh 30.22 in1023.4 mb 0.00 in0.0 mm 0.00 in0.0 mm 0.00 in0.0 mm
08:21 PM 64.0°F17.8°C 59.7°F15.4°C 86% Calm Calm 2.5 mph4.0 kmh 30.23 in1023.7 mb 0.00 in0.0 mm 0.00 in0.0 mm 0.00 in0.0 mm
08:36 PM 63.7°F17.6°C 59.4°F15.2°C 86% 2.2 mph NNW3.5 kmh NNW 4.9 mph7.9 kmh 30.23 in1023.7 mb 0.00 in0.0 mm 0.00 in0.0 mm 0.00 in0.0 mm
08:51 PM 63.5°F17.5°C 59.2°F15.1°C 86% Calm Calm 4.9 mph7.9 kmh 30.23 in1023.7 mb 0.00 in0.0 mm 0.00 in0.0 mm 0.00 in0.0 mm
09:06 PM 63.1°F17.3°C 58.8°F14.9°C 86% 2.9 mph NNW4.7 kmh NNW 4.9 mph7.9 kmh 30.23 in1023.7 mb 0.00 in0.0 mm 0.00 in0.0 mm 0.00 in0.0 mm
09:21 PM 63.0°F17.2°C 58.6°F14.8°C 86% Calm Calm 4.9 mph7.9 kmh 30.23 in1023.7 mb 0.00 in0.0 mm 0.00 in0.0 mm 0.00 in0.0 mm
09:37 PM 62.8°F17.1°C 58.5°F14.7°C 86% 3.4 mph NNW5.5 kmh NNW 4.9 mph7.9 kmh 30.23 in1023.7 mb 0.00 in0.0 mm 0.00 in0.0 mm 0.00 in0.0 mm
09:52 PM 62.4°F16.9°C 58.5°F14.7°C 87% 1.6 mph NNW2.6 kmh NNW 4.9 mph7.9 kmh 30.23 in1023.7 mb 0.00 in0.0 mm 0.00 in0.0 mm 0.00 in0.0 mm
10:07 PM 62.1°F16.7°C 57.7°F14.3°C 86% 3.1 mph NW5.0 kmh NW 4.9 mph7.9 kmh 30.23 in1023.7 mb 0.00 in0.0 mm 0.00 in0.0 mm 0.00 in0.0 mm
10:22 PM 62.1°F16.7°C 57.6°F14.2°C 85% 2.5 mph N4.0 kmh N 7.6 mph12.2 kmh 30.23 in1023.7 mb 0.00 in0.0 mm 0.00 in0.0 mm 0.00 in0.0 mm
10:38 PM 62.1°F16.7°C 57.2°F14.0°C 84% 1.6 mph NW2.6 kmh NW 4.9 mph7.9 kmh 30.23 in1023.7 mb 0.00 in0.0 mm 0.00 in0.0 mm 0.00 in0.0 mm
10:53 PM 62.1°F16.7°C 57.6°F14.2°C 85% 1.3 mph NNW2.1 kmh NNW 4.9 mph7.9 kmh 30.23 in1023.7 mb 0.00 in0.0 mm 0.00 in0.0 mm 0.00 in0.0 mm
11:08 PM 61.9°F16.6°C 57.0°F13.9°C 84% 3.8 mph N6.1 kmh N 7.6 mph12.2 kmh 30.23 in1023.7 mb 0.00 in0.0 mm 0.00 in0.0 mm 0.00 in0.0 mm
11:23 PM 61.3°F16.3°C 57.2°F14.0°C 86% 4.9 mph NNW7.9 kmh NNW 10.1 mph16.3 kmh 30.23 in1023.7 mb 0.00 in0.0 mm 0.00 in0.0 mm 0.00 in0.0 mm
11:38 PM 61.2°F16.2°C 55.9°F13.3°C 83% 3.8 mph NW6.1 kmh NW 10.1 mph16.3 kmh 30.23 in1023.7 mb 0.00 in0.0 mm 0.00 in0.0 mm 0.00 in0.0 mm
11:54 PM 61.2°F16.2°C 56.3°F13.5°C 84% 3.4 mph NNW5.5 kmh NNW 7.6 mph12.2 kmh 30.23 in1023.7 mb 0.00 in0.0 mm 0.00 in0.0 mm 0.00 in0.0 mm